createdAt,value
2018-09-05T00:00:31.615Z,1016.39
2018-09-05T00:01:31.689Z,1016.4
2018-09-05T00:02:31.563Z,1016.41
2018-09-05T00:03:31.674Z,1016.41
2018-09-05T00:04:31.578Z,1016.4
2018-09-05T00:05:31.566Z,1016.4
2018-09-05T00:06:31.761Z,1016.43
2018-09-05T00:07:31.690Z,1016.41
2018-09-05T00:08:31.606Z,1016.45
2018-09-05T00:09:31.665Z,1016.44
2018-09-05T00:10:31.590Z,1016.44
2018-09-05T00:11:31.540Z,1016.44
2018-09-05T00:12:31.635Z,1016.44
2018-09-05T00:13:31.746Z,1016.45
2018-09-05T00:14:31.674Z,1016.49
2018-09-05T00:15:31.566Z,1016.48
2018-09-05T00:16:31.697Z,1016.44
2018-09-05T00:17:31.669Z,1016.41
2018-09-05T00:18:31.616Z,1016.41
2018-09-05T00:19:31.543Z,1016.42
2018-09-05T00:20:31.600Z,1016.38
2018-09-05T00:21:31.791Z,1016.41
2018-09-05T00:22:31.875Z,1016.43
2018-09-05T00:23:31.668Z,1016.41
2018-09-05T00:24:31.580Z,1016.41
2018-09-05T00:25:31.679Z,1016.43
2018-09-05T00:26:31.926Z,1016.44
2018-09-05T00:27:31.678Z,1016.43
2018-09-05T00:28:31.677Z,1016.38
2018-09-05T00:29:31.889Z,1016.42
2018-09-05T00:30:31.799Z,1016.43
2018-09-05T00:31:31.609Z,1016.46
2018-09-05T00:32:31.728Z,1016.42
2018-09-05T00:33:31.621Z,1016.44
2018-09-05T00:34:31.687Z,1016.43
2018-09-05T00:35:31.705Z,1016.39
2018-09-05T00:36:31.718Z,1016.42
2018-09-05T00:37:31.645Z,1016.42
2018-09-05T00:38:31.566Z,1016.45
2018-09-05T00:39:31.649Z,1016.45
2018-09-05T00:40:32.148Z,1016.42
2018-09-05T00:41:31.608Z,1016.43
2018-09-05T00:42:31.619Z,1016.47
2018-09-05T00:43:31.777Z,1016.46
2018-09-05T00:44:31.898Z,1016.48
2018-09-05T00:45:31.826Z,1016.47
2018-09-05T00:46:31.624Z,1016.43
2018-09-05T00:47:31.727Z,1016.49
2018-09-05T00:48:31.604Z,1016.51
2018-09-05T00:49:31.711Z,1016.46
2018-09-05T00:50:31.756Z,1016.46
2018-09-05T00:51:31.611Z,1016.46
2018-09-05T00:52:31.748Z,1016.47
2018-09-05T00:53:31.726Z,1016.43
2018-09-05T00:54:31.771Z,1016.48
2018-09-05T00:55:31.681Z,1016.47
2018-09-05T00:56:31.518Z,1016.48
2018-09-05T00:57:31.608Z,1016.49
2018-09-05T00:58:31.503Z,1016.49
2018-09-05T00:59:31.852Z,1016.51
2018-09-05T01:00:31.485Z,1016.52
2018-09-05T01:01:31.708Z,1016.46
2018-09-05T01:02:31.672Z,1016.48
2018-09-05T01:03:31.635Z,1016.49
2018-09-05T01:04:31.618Z,1016.43
2018-09-05T01:05:31.663Z,1016.41
2018-09-05T01:06:31.550Z,1016.45
2018-09-05T01:07:31.612Z,1016.44
2018-09-05T01:08:31.638Z,1016.44
2018-09-05T01:09:31.685Z,1016.44
2018-09-05T01:10:31.613Z,1016.48
2018-09-05T01:11:31.694Z,1016.45
2018-09-05T01:12:31.678Z,1016.44
2018-09-05T01:13:31.702Z,1016.47
2018-09-05T01:14:31.730Z,1016.5
2018-09-05T01:15:31.612Z,1016.49
2018-09-05T01:16:31.602Z,1016.51
2018-09-05T01:17:31.565Z,1016.52
2018-09-05T01:18:31.613Z,1016.52
2018-09-05T01:19:31.565Z,1016.54
2018-09-05T01:20:31.632Z,1016.54
2018-09-05T01:21:31.642Z,1016.56
2018-09-05T01:22:31.483Z,1016.58
2018-09-05T01:23:31.621Z,1016.6
2018-09-05T01:24:31.547Z,1016.59
2018-09-05T01:25:31.646Z,1016.6
2018-09-05T01:26:31.664Z,1016.62
2018-09-05T01:27:31.619Z,1016.57
2018-09-05T01:28:31.576Z,1016.63
2018-09-05T01:29:31.677Z,1016.6
2018-09-05T01:30:31.581Z,1016.62
2018-09-05T01:31:31.635Z,1016.66
2018-09-05T01:32:31.585Z,1016.63
2018-09-05T01:33:31.599Z,1016.64
2018-09-05T01:34:31.867Z,1016.67
2018-09-05T01:35:31.691Z,1016.62
2018-09-05T01:36:31.678Z,1016.6
2018-09-05T01:37:31.782Z,1016.61
2018-09-05T01:38:31.693Z,1016.62
2018-09-05T01:39:31.759Z,1016.66
2018-09-05T01:40:31.577Z,1016.67
2018-09-05T01:41:31.458Z,1016.64
2018-09-05T01:42:31.700Z,1016.65
2018-09-05T01:43:31.623Z,1016.65
2018-09-05T01:44:31.487Z,1016.64
2018-09-05T01:45:31.549Z,1016.66
2018-09-05T01:46:31.608Z,1016.66
2018-09-05T01:47:32.189Z,1016.65
2018-09-05T01:48:31.702Z,1016.62
2018-09-05T01:49:31.544Z,1016.63
2018-09-05T01:50:31.430Z,1016.62
2018-09-05T01:51:31.715Z,1016.61
2018-09-05T01:52:31.689Z,1016.61
2018-09-05T01:53:31.632Z,1016.6
2018-09-05T01:54:31.638Z,1016.64
2018-09-05T01:55:31.618Z,1016.6
2018-09-05T01:56:31.781Z,1016.67
2018-09-05T01:57:31.614Z,1016.64
2018-09-05T01:58:31.687Z,1016.63
2018-09-05T01:59:31.621Z,1016.62
2018-09-05T02:00:31.680Z,1016.58
2018-09-05T02:01:31.487Z,1016.57
2018-09-05T02:02:31.731Z,1016.61
2018-09-05T02:03:31.740Z,1016.56
2018-09-05T02:04:31.681Z,1016.55
2018-09-05T02:05:31.405Z,1016.55
2018-09-05T02:06:31.707Z,1016.56
2018-09-05T02:07:31.945Z,1016.6
2018-09-05T02:08:31.990Z,1016.57
2018-09-05T02:09:31.839Z,1016.63
2018-09-05T02:10:31.589Z,1016.62
2018-09-05T02:11:31.649Z,1016.61
2018-09-05T02:12:31.712Z,1016.59
2018-09-05T02:13:31.504Z,1016.61
2018-09-05T02:14:31.671Z,1016.6
2018-09-05T02:15:31.625Z,1016.59
2018-09-05T02:16:31.893Z,1016.67
2018-09-05T02:17:31.579Z,1016.61
2018-09-05T02:18:31.642Z,1016.64
2018-09-05T02:19:31.991Z,1016.63
2018-09-05T02:20:31.653Z,1016.63
2018-09-05T02:21:31.694Z,1016.61
2018-09-05T02:22:31.652Z,1016.59
2018-09-05T02:23:31.497Z,1016.58
2018-09-05T02:24:31.621Z,1016.57
2018-09-05T02:25:31.504Z,1016.57
2018-09-05T02:26:31.657Z,1016.56
2018-09-05T02:27:31.652Z,1016.57
2018-09-05T02:28:31.723Z,1016.58
2018-09-05T02:29:31.618Z,1016.61
2018-09-05T02:30:31.481Z,1016.6
2018-09-05T02:31:31.683Z,1016.63
2018-09-05T02:32:31.526Z,1016.59
2018-09-05T02:33:31.567Z,1016.6
2018-09-05T02:34:31.518Z,1016.62
2018-09-05T02:35:31.619Z,1016.61
2018-09-05T02:36:31.600Z,1016.57
2018-09-05T02:37:31.569Z,1016.63
2018-09-05T02:38:31.581Z,1016.66
2018-09-05T02:39:31.735Z,1016.63
2018-09-05T02:40:31.848Z,1016.63
2018-09-05T02:41:31.459Z,1016.65
2018-09-05T02:42:31.572Z,1016.68
2018-09-05T02:43:31.569Z,1016.67
2018-09-05T02:44:31.411Z,1016.68
2018-09-05T02:45:31.512Z,1016.68
2018-09-05T02:46:31.585Z,1016.7
2018-09-05T02:47:31.475Z,1016.68
2018-09-05T02:48:31.611Z,1016.67
2018-09-05T02:49:31.616Z,1016.67
2018-09-05T02:50:31.411Z,1016.65
2018-09-05T02:51:31.537Z,1016.68
2018-09-05T02:52:31.607Z,1016.74
2018-09-05T02:53:31.501Z,1016.72
2018-09-05T02:54:31.850Z,1016.71
2018-09-05T02:55:31.659Z,1016.74
2018-09-05T02:56:32.112Z,1016.71
2018-09-05T02:57:31.428Z,1016.7
2018-09-05T02:58:31.598Z,1016.71
2018-09-05T02:59:31.911Z,1016.69
2018-09-05T03:00:31.667Z,1016.67
2018-09-05T03:01:31.434Z,1016.66
2018-09-05T03:02:31.680Z,1016.67
2018-09-05T03:03:31.713Z,1016.68
2018-09-05T03:04:31.635Z,1016.7
2018-09-05T03:05:31.766Z,1016.67
2018-09-05T03:06:31.776Z,1016.7
2018-09-05T03:07:31.646Z,1016.68
2018-09-05T03:08:31.869Z,1016.73
2018-09-05T03:09:31.832Z,1016.7
2018-09-05T03:10:31.449Z,1016.73
2018-09-05T03:11:31.887Z,1016.72
2018-09-05T03:12:31.374Z,1016.75
2018-09-05T03:13:31.618Z,1016.75
2018-09-05T03:14:31.557Z,1016.76
2018-09-05T03:15:31.478Z,1016.81
2018-09-05T03:16:31.485Z,1016.76
2018-09-05T03:17:31.797Z,1016.74
2018-09-05T03:18:31.608Z,1016.73
2018-09-05T03:19:31.584Z,1016.74
2018-09-05T03:20:31.659Z,1016.74
2018-09-05T03:21:31.644Z,1016.69
2018-09-05T03:22:31.699Z,1016.7
2018-09-05T03:23:31.971Z,1016.7
2018-09-05T03:24:31.788Z,1016.67
2018-09-05T03:25:31.667Z,1016.69
2018-09-05T03:26:31.427Z,1016.71
2018-09-05T03:27:31.898Z,1016.65
2018-09-05T03:28:31.506Z,1016.7
2018-09-05T03:29:31.698Z,1016.68
2018-09-05T03:30:31.707Z,1016.67
2018-09-05T03:31:31.619Z,1016.65
2018-09-05T03:32:32.115Z,1016.69
2018-09-05T03:33:31.641Z,1016.64
2018-09-05T03:34:31.640Z,1016.66
2018-09-05T03:35:31.367Z,1016.63
2018-09-05T03:36:31.662Z,1016.63
2018-09-05T03:37:31.483Z,1016.65
2018-09-05T03:38:31.636Z,1016.62
2018-09-05T03:39:31.715Z,1016.67
2018-09-05T03:40:31.734Z,1016.71
2018-09-05T03:41:31.732Z,1016.66
2018-09-05T03:42:31.580Z,1016.7
2018-09-05T03:43:31.630Z,1016.7
2018-09-05T03:44:31.882Z,1016.69
2018-09-05T03:45:31.536Z,1016.7
2018-09-05T03:46:31.939Z,1016.69
2018-09-05T03:47:31.754Z,1016.73
2018-09-05T03:48:31.454Z,1016.69
2018-09-05T03:49:31.396Z,1016.66
2018-09-05T03:50:31.463Z,1016.72
2018-09-05T03:51:31.486Z,1016.76
2018-09-05T03:52:31.996Z,1016.71
2018-09-05T03:53:31.429Z,1016.73
2018-09-05T03:54:31.643Z,1016.76
2018-09-05T03:55:31.850Z,1016.73
2018-09-05T03:56:31.700Z,1016.75
2018-09-05T03:57:31.569Z,1016.73
2018-09-05T03:58:31.626Z,1016.75
2018-09-05T03:59:32.012Z,1016.79
2018-09-05T04:00:31.695Z,1016.79
2018-09-05T04:01:31.608Z,1016.78
2018-09-05T04:02:31.717Z,1016.75
2018-09-05T04:03:31.480Z,1016.77
2018-09-05T04:04:31.568Z,1016.8
2018-09-05T04:05:31.656Z,1016.79
2018-09-05T04:06:31.639Z,1016.75
2018-09-05T04:07:31.638Z,1016.73
2018-09-05T04:08:31.402Z,1016.77
2018-09-05T04:09:31.653Z,1016.8
2018-09-05T04:10:31.622Z,1016.77
2018-09-05T04:11:31.447Z,1016.79
2018-09-05T04:12:31.761Z,1016.78
2018-09-05T04:13:31.850Z,1016.79
2018-09-05T04:14:31.611Z,1016.81
2018-09-05T04:15:31.800Z,1016.79
2018-09-05T04:16:31.749Z,1016.79
2018-09-05T04:17:31.672Z,1016.8
2018-09-05T04:18:31.461Z,1016.78
2018-09-05T04:19:31.527Z,1016.79
2018-09-05T04:20:31.588Z,1016.78
2018-09-05T04:21:31.554Z,1016.79
2018-09-05T04:22:31.583Z,1016.82
2018-09-05T04:23:31.472Z,1016.81
2018-09-05T04:24:31.811Z,1016.84
2018-09-05T04:25:31.628Z,1016.86
2018-09-05T04:26:31.708Z,1016.84
2018-09-05T04:27:31.621Z,1016.85
2018-09-05T04:28:31.526Z,1016.91
2018-09-05T04:29:31.909Z,1016.88
2018-09-05T04:30:31.398Z,1016.88
2018-09-05T04:31:31.613Z,1016.89
2018-09-05T04:32:31.504Z,1016.9
2018-09-05T04:33:31.849Z,1016.91
2018-09-05T04:34:31.575Z,1016.94
2018-09-05T04:35:31.399Z,1016.94
2018-09-05T04:36:31.390Z,1016.89
2018-09-05T04:37:31.435Z,1016.93
2018-09-05T04:38:31.437Z,1016.95
2018-09-05T04:39:31.592Z,1016.93
2018-09-05T04:40:31.442Z,1016.91
2018-09-05T04:41:31.379Z,1016.96
2018-09-05T04:42:31.414Z,1016.9
2018-09-05T04:43:31.405Z,1016.93
2018-09-05T04:44:31.421Z,1016.9
2018-09-05T04:45:31.968Z,1016.9
2018-09-05T04:46:31.632Z,1016.89
2018-09-05T04:47:31.638Z,1016.91
2018-09-05T04:48:31.648Z,1016.9
2018-09-05T04:49:31.820Z,1016.93
2018-09-05T04:50:31.552Z,1016.9
2018-09-05T04:51:31.632Z,1016.89
2018-09-05T04:52:32.199Z,1016.92
2018-09-05T04:53:31.555Z,1016.98
2018-09-05T04:54:31.591Z,1016.97
2018-09-05T04:55:31.633Z,1016.99
2018-09-05T04:56:31.709Z,1016.95
2018-09-05T04:57:31.739Z,1016.99
2018-09-05T04:58:31.937Z,1017.01
2018-09-05T04:59:31.848Z,1017
2018-09-05T05:00:31.452Z,1017.01
2018-09-05T05:01:31.485Z,1017.03
2018-09-05T05:02:31.789Z,1016.99
2018-09-05T05:03:31.421Z,1017
2018-09-05T05:04:31.506Z,1017.04
2018-09-05T05:05:31.770Z,1017.04
2018-09-05T05:06:31.483Z,1017.06
2018-09-05T05:07:31.477Z,1017.08
2018-09-05T05:08:31.674Z,1017.17
2018-09-05T05:09:31.422Z,1017.11
2018-09-05T05:10:31.612Z,1017.12
2018-09-05T05:11:31.426Z,1017.15
2018-09-05T05:12:31.855Z,1017.13
2018-09-05T05:13:31.547Z,1017.16
2018-09-05T05:14:31.480Z,1017.15
2018-09-05T05:15:31.667Z,1017.17
2018-09-05T05:16:31.416Z,1017.22
2018-09-05T05:17:31.702Z,1017.21
2018-09-05T05:18:31.754Z,1017.23
2018-09-05T05:19:31.684Z,1017.24
2018-09-05T05:20:31.467Z,1017.21
2018-09-05T05:21:31.659Z,1017.23
2018-09-05T05:22:31.573Z,1017.2
2018-09-05T05:23:31.675Z,1017.25
2018-09-05T05:24:31.658Z,1017.24
2018-09-05T05:25:31.688Z,1017.25
2018-09-05T05:26:31.623Z,1017.21
2018-09-05T05:27:31.825Z,1017.23
2018-09-05T05:28:31.432Z,1017.24
2018-09-05T05:29:31.603Z,1017.22
2018-09-05T05:30:31.443Z,1017.26
2018-09-05T05:31:31.581Z,1017.24
2018-09-05T05:32:31.996Z,1017.27
2018-09-05T05:33:31.730Z,1017.26
2018-09-05T05:34:31.599Z,1017.26
2018-09-05T05:35:31.731Z,1017.34
2018-09-05T05:36:31.779Z,1017.28
2018-09-05T05:37:31.374Z,1017.32
2018-09-05T05:38:31.629Z,1017.31
2018-09-05T05:39:31.592Z,1017.32
2018-09-05T05:40:31.576Z,1017.34
2018-09-05T05:41:31.814Z,1017.31
2018-09-05T05:42:31.921Z,1017.33
2018-09-05T05:43:31.420Z,1017.31
2018-09-05T05:44:31.484Z,1017.34
2018-09-05T05:45:31.570Z,1017.3
2018-09-05T05:46:31.491Z,1017.29
2018-09-05T05:47:31.705Z,1017.29
2018-09-05T05:48:31.406Z,1017.3
2018-09-05T05:49:31.367Z,1017.3
2018-09-05T05:50:31.484Z,1017.32
2018-09-05T05:51:31.612Z,1017.31
2018-09-05T05:52:31.447Z,1017.32
2018-09-05T05:53:31.657Z,1017.29
2018-09-05T05:54:31.428Z,1017.34
2018-09-05T05:55:31.360Z,1017.32
2018-09-05T05:56:31.377Z,1017.32
2018-09-05T05:57:31.710Z,1017.29
2018-09-05T05:58:31.479Z,1017.33
2018-09-05T05:59:31.359Z,1017.34
2018-09-05T06:00:31.468Z,1017.33
2018-09-05T06:01:31.598Z,1017.38
2018-09-05T06:02:31.646Z,1017.4
2018-09-05T06:03:31.640Z,1017.35
2018-09-05T06:04:31.523Z,1017.3
2018-09-05T06:05:31.453Z,1017.36
2018-09-05T06:06:31.787Z,1017.36
2018-09-05T06:07:31.588Z,1017.36
2018-09-05T06:08:31.734Z,1017.38
2018-09-05T06:09:31.575Z,1017.35
2018-09-05T06:10:31.631Z,1017.38
2018-09-05T06:11:31.681Z,1017.37
2018-09-05T06:12:31.391Z,1017.35
2018-09-05T06:13:31.650Z,1017.4
2018-09-05T06:14:31.435Z,1017.34
2018-09-05T06:15:31.964Z,1017.37
2018-09-05T06:16:31.774Z,1017.36
2018-09-05T06:17:31.670Z,1017.36
2018-09-05T06:18:31.654Z,1017.37
2018-09-05T06:19:31.555Z,1017.35
2018-09-05T06:20:31.445Z,1017.39
2018-09-05T06:21:31.714Z,1017.37
2018-09-05T06:22:31.733Z,1017.37
2018-09-05T06:23:31.527Z,1017.35
2018-09-05T06:24:31.698Z,1017.38
2018-09-05T06:25:31.658Z,1017.36
2018-09-05T06:26:31.710Z,1017.39
2018-09-05T06:27:31.367Z,1017.39
2018-09-05T06:28:31.752Z,1017.39
2018-09-05T06:29:31.980Z,1017.42
2018-09-05T06:30:32.277Z,1017.42
2018-09-05T06:31:31.622Z,1017.42
2018-09-05T06:32:31.376Z,1017.42
2018-09-05T06:33:31.661Z,1017.46
2018-09-05T06:34:31.680Z,1017.41
2018-09-05T06:35:31.802Z,1017.44
2018-09-05T06:36:31.475Z,1017.4
2018-09-05T06:37:31.584Z,1017.38
2018-09-05T06:38:31.877Z,1017.42
2018-09-05T06:39:31.514Z,1017.48
2018-09-05T06:40:31.578Z,1017.42
2018-09-05T06:41:31.543Z,1017.45
2018-09-05T06:42:31.502Z,1017.44
2018-09-05T06:43:31.766Z,1017.48
2018-09-05T06:44:31.609Z,1017.47
2018-09-05T06:45:32.618Z,1017.48
2018-09-05T06:46:31.444Z,1017.48
2018-09-05T06:47:32.015Z,1017.46
2018-09-05T06:48:31.460Z,1017.47
2018-09-05T06:49:31.659Z,1017.49
2018-09-05T06:50:31.684Z,1017.45
2018-09-05T06:51:32.139Z,1017.46
2018-09-05T06:52:31.602Z,1017.45
2018-09-05T06:53:31.702Z,1017.42
2018-09-05T06:54:31.671Z,1017.42
2018-09-05T06:55:31.698Z,1017.45
2018-09-05T06:56:31.795Z,1017.45
2018-09-05T06:57:31.624Z,1017.51
2018-09-05T06:58:31.611Z,1017.49
2018-09-05T06:59:31.427Z,1017.51
2018-09-05T07:00:31.620Z,1017.51
2018-09-05T07:01:31.697Z,1017.49
2018-09-05T07:02:31.635Z,1017.51
2018-09-05T07:03:31.737Z,1017.49
2018-09-05T07:04:31.617Z,1017.5
2018-09-05T07:05:31.366Z,1017.51
2018-09-05T07:06:31.328Z,1017.53
2018-09-05T07:07:31.377Z,1017.51
2018-09-05T07:08:31.583Z,1017.52
2018-09-05T07:09:31.387Z,1017.53
2018-09-05T07:10:31.373Z,1017.54
2018-09-05T07:11:31.866Z,1017.56
2018-09-05T07:12:31.678Z,1017.58
2018-09-05T07:13:31.423Z,1017.6
2018-09-05T07:14:31.782Z,1017.61
2018-09-05T07:15:31.583Z,1017.6
2018-09-05T07:16:31.558Z,1017.63
2018-09-05T07:17:31.610Z,1017.67
2018-09-05T07:18:31.527Z,1017.63
2018-09-05T07:19:31.596Z,1017.64
2018-09-05T07:20:31.378Z,1017.64
2018-09-05T07:21:31.847Z,1017.64
2018-09-05T07:22:31.691Z,1017.64
2018-09-05T07:23:31.361Z,1017.62
2018-09-05T07:24:31.491Z,1017.67
2018-09-05T07:25:31.465Z,1017.61
2018-09-05T07:26:31.754Z,1017.62
2018-09-05T07:27:31.748Z,1017.6
2018-09-05T07:28:31.696Z,1017.59
2018-09-05T07:29:31.594Z,1017.65
2018-09-05T07:30:32.057Z,1017.65
2018-09-05T07:31:31.805Z,1017.66
2018-09-05T07:32:31.405Z,1017.67
2018-09-05T07:33:31.708Z,1017.65
2018-09-05T07:34:31.619Z,1017.64
2018-09-05T07:35:31.768Z,1017.62
2018-09-05T07:36:31.578Z,1017.63
2018-09-05T07:37:31.638Z,1017.63
2018-09-05T07:38:31.722Z,1017.59
2018-09-05T07:39:31.493Z,1017.6
2018-09-05T07:40:31.668Z,1017.63
2018-09-05T07:41:31.670Z,1017.62
2018-09-05T07:42:31.557Z,1017.6
2018-09-05T07:43:31.629Z,1017.6
2018-09-05T07:44:31.623Z,1017.6
2018-09-05T07:45:31.550Z,1017.63
2018-09-05T07:46:31.807Z,1017.63
2018-09-05T07:47:31.346Z,1017.62
2018-09-05T07:48:31.498Z,1017.61
2018-09-05T07:49:31.580Z,1017.6
2018-09-05T07:50:31.418Z,1017.6
2018-09-05T07:51:31.714Z,1017.59
2018-09-05T07:52:31.455Z,1017.59
2018-09-05T07:53:31.409Z,1017.6
2018-09-05T07:54:31.635Z,1017.61
2018-09-05T07:55:31.876Z,1017.6
2018-09-05T07:56:31.665Z,1017.62
2018-09-05T07:57:31.712Z,1017.61
2018-09-05T07:58:31.664Z,1017.57
2018-09-05T07:59:31.509Z,1017.59
2018-09-05T08:00:31.639Z,1017.55
2018-09-05T08:01:31.423Z,1017.59
2018-09-05T08:02:31.757Z,1017.55
2018-09-05T08:03:31.637Z,1017.61
2018-09-05T08:04:31.541Z,1017.6
2018-09-05T08:05:31.437Z,1017.59
2018-09-05T08:06:31.405Z,1017.62
2018-09-05T08:07:31.389Z,1017.63
2018-09-05T08:08:32.284Z,1017.62
2018-09-05T08:09:31.581Z,1017.61
2018-09-05T08:10:31.505Z,1017.64
2018-09-05T08:11:31.446Z,1017.63
2018-09-05T08:12:31.624Z,1017.61
2018-09-05T08:13:31.692Z,1017.64
2018-09-05T08:14:31.390Z,1017.65
2018-09-05T08:15:31.723Z,1017.61
2018-09-05T08:16:31.394Z,1017.66
2018-09-05T08:17:31.595Z,1017.6
2018-09-05T08:18:31.437Z,1017.61
2018-09-05T08:19:31.684Z,1017.65
2018-09-05T08:20:31.625Z,1017.59
2018-09-05T08:21:31.697Z,1017.59
2018-09-05T08:22:31.615Z,1017.59
2018-09-05T08:23:31.438Z,1017.57
2018-09-05T08:24:31.594Z,1017.6
2018-09-05T08:25:31.474Z,1017.58
2018-09-05T08:26:31.332Z,1017.56
2018-09-05T08:27:31.521Z,1017.58
2018-09-05T08:28:31.526Z,1017.59
2018-09-05T08:29:31.576Z,1017.59
2018-09-05T08:30:31.447Z,1017.59
2018-09-05T08:31:31.599Z,1017.55
2018-09-05T08:32:31.510Z,1017.56
2018-09-05T08:33:31.432Z,1017.59
2018-09-05T08:34:31.636Z,1017.56
2018-09-05T08:35:32.774Z,1017.6
2018-09-05T08:36:32.521Z,1017.6
2018-09-05T08:37:32.567Z,1017.59
2018-09-05T08:38:32.406Z,1017.55
2018-09-05T08:39:31.674Z,1017.6
2018-09-05T08:40:31.331Z,1017.56
2018-09-05T08:41:31.950Z,1017.55
2018-09-05T08:42:31.623Z,1017.56
2018-09-05T08:43:31.698Z,1017.54
2018-09-05T08:44:31.926Z,1017.56
2018-09-05T08:45:32.552Z,1017.56
2018-09-05T08:46:31.620Z,1017.56
2018-09-05T08:47:31.984Z,1017.56
2018-09-05T08:48:31.685Z,1017.55
2018-09-05T08:49:31.653Z,1017.56
2018-09-05T08:50:31.466Z,1017.55
2018-09-05T08:51:31.744Z,1017.53
2018-09-05T08:52:31.681Z,1017.56
2018-09-05T08:53:31.664Z,1017.47
2018-09-05T08:54:31.459Z,1017.48
2018-09-05T08:55:31.384Z,1017.46
2018-09-05T08:56:31.459Z,1017.49
2018-09-05T08:57:31.452Z,1017.48
2018-09-05T08:58:31.487Z,1017.44
2018-09-05T08:59:31.585Z,1017.48
2018-09-05T09:00:31.725Z,1017.5
2018-09-05T09:01:32.053Z,1017.47
2018-09-05T09:02:31.390Z,1017.44
2018-09-05T09:03:31.664Z,1017.46
2018-09-05T09:04:31.712Z,1017.48
2018-09-05T09:05:31.676Z,1017.49
2018-09-05T09:06:31.677Z,1017.45
2018-09-05T09:07:31.719Z,1017.48
2018-09-05T09:08:31.468Z,1017.45
2018-09-05T09:09:31.452Z,1017.45
2018-09-05T09:10:31.389Z,1017.42
2018-09-05T09:11:31.779Z,1017.44
2018-09-05T09:12:31.678Z,1017.44
2018-09-05T09:13:32.073Z,1017.41
2018-09-05T09:14:31.478Z,1017.35
2018-09-05T09:15:31.452Z,1017.4
2018-09-05T09:16:31.843Z,1017.36
2018-09-05T09:17:31.518Z,1017.39
2018-09-05T09:18:31.633Z,1017.34
2018-09-05T09:19:31.568Z,1017.39
2018-09-05T09:20:31.619Z,1017.37
2018-09-05T09:21:31.443Z,1017.33
2018-09-05T09:22:31.354Z,1017.37
2018-09-05T09:23:31.613Z,1017.33
2018-09-05T09:24:31.529Z,1017.31
2018-09-05T09:25:31.577Z,1017.3
2018-09-05T09:26:31.403Z,1017.29
2018-09-05T09:27:31.567Z,1017.3
2018-09-05T09:28:31.711Z,1017.25
2018-09-05T09:29:31.446Z,1017.21
2018-09-05T09:30:31.643Z,1017.22
2018-09-05T09:31:31.280Z,1017.22
2018-09-05T09:32:31.414Z,1017.18
2018-09-05T09:33:32.064Z,1017.17
2018-09-05T09:34:31.317Z,1017.16
2018-09-05T09:35:31.699Z,1017.16
2018-09-05T09:36:31.652Z,1017.15
2018-09-05T09:37:31.588Z,1017.1
2018-09-05T09:38:31.699Z,1017.11
2018-09-05T09:39:31.633Z,1017.1
2018-09-05T09:40:31.709Z,1017.09
2018-09-05T09:41:31.357Z,1017.09
2018-09-05T09:42:32.039Z,1017.07
2018-09-05T09:43:31.665Z,1017.11
2018-09-05T09:44:31.590Z,1017.08
2018-09-05T09:45:31.312Z,1017.06
2018-09-05T09:46:31.637Z,1017.04
2018-09-05T09:47:31.551Z,1017.03
2018-09-05T09:48:31.493Z,1017.01
2018-09-05T09:49:31.529Z,1017.02
2018-09-05T09:50:31.555Z,1016.99
2018-09-05T09:51:31.603Z,1016.96
2018-09-05T09:52:31.387Z,1016.95
2018-09-05T09:53:32.049Z,1016.94
2018-09-05T09:54:31.579Z,1016.93
2018-09-05T09:55:31.747Z,1016.9
2018-09-05T09:56:31.510Z,1016.9
2018-09-05T09:57:31.321Z,1016.91
2018-09-05T09:58:31.625Z,1016.89
2018-09-05T09:59:31.615Z,1016.91
2018-09-05T10:00:31.652Z,1016.91
2018-09-05T10:01:31.482Z,1016.9
2018-09-05T10:02:31.423Z,1016.96
2018-09-05T10:03:32.054Z,1016.9
2018-09-05T10:04:31.680Z,1016.87
2018-09-05T10:05:31.497Z,1016.88
2018-09-05T10:06:31.506Z,1016.87
2018-09-05T10:07:31.324Z,1016.86
2018-09-05T10:08:31.476Z,1016.83
2018-09-05T10:09:31.781Z,1016.84
2018-09-05T10:10:31.579Z,1016.81
2018-09-05T10:11:31.371Z,1016.82
2018-09-05T10:12:31.661Z,1016.83
2018-09-05T10:13:31.322Z,1016.83
2018-09-05T10:14:31.532Z,1016.82
2018-09-05T10:15:31.457Z,1016.79
2018-09-05T10:16:31.405Z,1016.76
2018-09-05T10:17:31.698Z,1016.76
2018-09-05T10:18:31.475Z,1016.73
2018-09-05T10:19:31.719Z,1016.75
2018-09-05T10:20:31.524Z,1016.74
2018-09-05T10:21:31.346Z,1016.71
2018-09-05T10:22:31.610Z,1016.68
2018-09-05T10:23:31.676Z,1016.66
2018-09-05T10:24:31.669Z,1016.65
2018-09-05T10:25:31.416Z,1016.64
2018-09-05T10:26:31.383Z,1016.61
2018-09-05T10:27:31.322Z,1016.6
2018-09-05T10:28:31.395Z,1016.59
2018-09-05T10:29:31.348Z,1016.58
2018-09-05T10:30:31.585Z,1016.56
2018-09-05T10:31:31.682Z,1016.58
2018-09-05T10:32:31.571Z,1016.52
2018-09-05T10:33:31.518Z,1016.51
2018-09-05T10:34:31.532Z,1016.51
2018-09-05T10:35:31.307Z,1016.46
2018-09-05T10:36:31.598Z,1016.5
2018-09-05T10:37:31.343Z,1016.46
2018-09-05T10:38:31.372Z,1016.47
2018-09-05T10:39:31.332Z,1016.42
2018-09-05T10:40:31.493Z,1016.39
2018-09-05T10:41:31.512Z,1016.43
2018-09-05T10:42:31.451Z,1016.4
2018-09-05T10:43:31.915Z,1016.41
2018-09-05T10:44:31.587Z,1016.38
2018-09-05T10:45:31.483Z,1016.38
2018-09-05T10:46:31.356Z,1016.41
2018-09-05T10:47:31.314Z,1016.39
2018-09-05T10:48:31.532Z,1016.37
2018-09-05T10:49:31.369Z,1016.4
2018-09-05T10:50:31.791Z,1016.35
2018-09-05T10:51:31.927Z,1016.34
2018-09-05T10:52:31.652Z,1016.34
2018-09-05T10:53:31.685Z,1016.32
2018-09-05T10:54:32.245Z,1016.31
2018-09-05T10:55:31.791Z,1016.33
2018-09-05T10:56:31.441Z,1016.3
2018-09-05T10:57:31.304Z,1016.33
2018-09-05T10:58:31.580Z,1016.28
2018-09-05T10:59:31.341Z,1016.3
2018-09-05T11:00:31.319Z,1016.29
2018-09-05T11:01:31.741Z,1016.28
2018-09-05T11:02:31.593Z,1016.25
2018-09-05T11:03:31.400Z,1016.27
2018-09-05T11:04:31.383Z,1016.25
2018-09-05T11:05:31.728Z,1016.23
2018-09-05T11:06:31.481Z,1016.21
2018-09-05T11:07:33.988Z,1016.21
2018-09-05T11:08:31.379Z,1016.23
2018-09-05T11:09:31.675Z,1016.2
2018-09-05T11:10:31.925Z,1016.22
2018-09-05T11:11:31.533Z,1016.19
2018-09-05T11:12:31.400Z,1016.19
2018-09-05T11:13:31.390Z,1016.18
2018-09-05T11:14:31.421Z,1016.13
2018-09-05T11:15:31.408Z,1016.14
2018-09-05T11:16:31.660Z,1016.12
2018-09-05T11:17:31.296Z,1016.13
2018-09-05T11:18:31.537Z,1016.11
2018-09-05T11:19:31.573Z,1016.06
2018-09-05T11:20:31.591Z,1016.12
2018-09-05T11:21:31.707Z,1016.06
2018-09-05T11:22:31.401Z,1016.07
2018-09-05T11:23:31.760Z,1016.09
2018-09-05T11:24:31.369Z,1016.05
2018-09-05T11:25:31.340Z,1016.07
2018-09-05T11:26:31.280Z,1016.01
2018-09-05T11:27:31.578Z,1016.06
2018-09-05T11:28:31.455Z,1016.04
2018-09-05T11:29:31.296Z,1016
2018-09-05T11:30:31.668Z,1015.94
2018-09-05T11:31:31.425Z,1015.92
2018-09-05T11:32:31.331Z,1015.91
2018-09-05T11:33:31.429Z,1015.88
2018-09-05T11:34:31.371Z,1015.87
2018-09-05T11:35:31.540Z,1015.89
2018-09-05T11:36:31.384Z,1015.89
2018-09-05T11:37:31.758Z,1015.91
2018-09-05T11:38:31.333Z,1015.94
2018-09-05T11:39:31.493Z,1015.89
2018-09-05T11:40:31.327Z,1015.87
2018-09-05T11:41:31.601Z,1015.85
2018-09-05T11:42:31.321Z,1015.83
2018-09-05T11:43:31.397Z,1015.87
2018-09-05T11:44:31.251Z,1015.84
2018-09-05T11:45:31.393Z,1015.86
2018-09-05T11:46:31.475Z,1015.87
2018-09-05T11:47:31.588Z,1015.84
2018-09-05T11:48:31.635Z,1015.85
2018-09-05T11:49:31.429Z,1015.82
2018-09-05T11:50:31.624Z,1015.79
2018-09-05T11:51:31.452Z,1015.83
2018-09-05T11:52:31.954Z,1015.87
2018-09-05T11:53:31.645Z,1015.79
2018-09-05T11:54:31.506Z,1015.8
2018-09-05T11:55:31.389Z,1015.8
2018-09-05T11:56:31.720Z,1015.84
2018-09-05T11:57:31.611Z,1015.82
2018-09-05T11:58:31.345Z,1015.76
2018-09-05T11:59:31.471Z,1015.79
2018-09-05T12:00:31.243Z,1015.78
2018-09-05T12:01:31.389Z,1015.73
2018-09-05T12:02:31.425Z,1015.75
2018-09-05T12:03:31.346Z,1015.74
2018-09-05T12:04:31.629Z,1015.74
2018-09-05T12:05:31.270Z,1015.75
2018-09-05T12:06:31.352Z,1015.71
2018-09-05T12:07:31.812Z,1015.77
2018-09-05T12:08:31.704Z,1015.72